createdAt,value
2022-10-22T00:01:06.003Z,100.00
2022-10-22T00:03:33.936Z,100.00
2022-10-22T00:06:01.871Z,100.00
2022-10-22T00:08:30.265Z,100.00
2022-10-22T00:10:58.162Z,100.00
2022-10-22T00:13:28.922Z,100.00
2022-10-22T00:15:56.634Z,100.00
2022-10-22T00:18:24.444Z,100.00
2022-10-22T00:20:52.152Z,100.00
2022-10-22T00:23:19.857Z,100.00
2022-10-22T00:25:47.511Z,100.00
2022-10-22T00:28:15.555Z,100.00
2022-10-22T00:30:44.650Z,100.00
2022-10-22T00:33:12.362Z,100.00
2022-10-22T00:35:40.169Z,100.00
2022-10-22T00:38:08.188Z,100.00
2022-10-22T00:40:36.273Z,100.00
2022-10-22T00:43:04.224Z,100.00
2022-10-22T00:45:32.011Z,100.00
2022-10-22T00:48:05.697Z,100.00
2022-10-22T00:50:36.767Z,100.00
2022-10-22T00:53:07.547Z,100.00
2022-10-22T00:55:36.433Z,100.00
2022-10-22T00:58:05.182Z,100.00
2022-10-22T01:00:33.301Z,100.00
2022-10-22T01:03:03.170Z,100.00
2022-10-22T01:05:45.240Z,100.00
2022-10-22T01:08:23.238Z,100.00
2022-10-22T01:11:00.826Z,100.00
2022-10-22T01:13:39.784Z,100.00
2022-10-22T01:16:12.777Z,100.00
2022-10-22T01:18:49.041Z,100.00
2022-10-22T01:21:26.298Z,100.00
2022-10-22T01:24:36.692Z,100.00
2022-10-22T01:27:22.057Z,100.00
2022-10-22T01:29:53.946Z,100.00
2022-10-22T01:32:24.708Z,100.00
2022-10-22T01:34:56.389Z,100.00
2022-10-22T01:37:27.210Z,100.00
2022-10-22T01:39:56.983Z,100.00
2022-10-22T01:42:25.067Z,100.00
2022-10-22T01:44:54.269Z,100.00
2022-10-22T01:47:36.936Z,100.00
2022-10-22T01:50:33.501Z,100.00
2022-10-22T01:53:20.023Z,100.00
2022-10-22T01:55:57.991Z,100.00
2022-10-22T01:58:40.686Z,100.00
2022-10-22T02:01:17.077Z,100.00
2022-10-22T02:03:50.119Z,100.00
2022-10-22T02:06:22.178Z,100.00
2022-10-22T02:08:50.479Z,100.00
2022-10-22T02:11:18.436Z,100.00
2022-10-22T02:13:49.283Z,100.00
2022-10-22T02:16:22.815Z,100.00
2022-10-22T02:18:55.026Z,100.00
2022-10-22T02:21:23.178Z,100.00
2022-10-22T02:23:51.106Z,100.00
2022-10-22T02:26:24.661Z,100.00
2022-10-22T02:28:59.872Z,100.00
2022-10-22T02:35:04.593Z,100.00
2022-10-22T02:37:33.548Z,100.00
2022-10-22T02:40:01.227Z,100.00
2022-10-22T02:42:29.731Z,100.00
2022-10-22T02:44:57.439Z,100.00
2022-10-22T02:47:25.097Z,100.00
2022-10-22T02:49:52.803Z,100.00
2022-10-22T02:52:21.879Z,100.00
2022-10-22T02:54:49.561Z,100.00
2022-10-22T02:57:17.292Z,100.00
2022-10-22T02:59:45.067Z,100.00
2022-10-22T03:02:12.757Z,100.00
2022-10-22T03:04:40.489Z,100.00
2022-10-22T03:07:08.235Z,100.00
2022-10-22T03:09:37.361Z,100.00
2022-10-22T03:12:05.578Z,100.00
2022-10-22T03:14:33.244Z,100.00
2022-10-22T03:17:00.945Z,100.00
2022-10-22T03:19:28.630Z,100.00
2022-10-22T03:22:01.125Z,100.00
2022-10-22T03:24:31.262Z,100.00
2022-10-22T03:27:00.377Z,100.00
2022-10-22T03:29:28.905Z,100.00
2022-10-22T03:31:56.633Z,100.00
2022-10-22T03:34:24.345Z,100.00
2022-10-22T03:36:53.129Z,100.00
2022-10-22T03:39:21.920Z,100.00
2022-10-22T03:41:50.706Z,100.00
2022-10-22T03:44:20.758Z,100.00
2022-10-22T03:46:48.418Z,100.00
2022-10-22T03:49:16.137Z,100.00
2022-10-22T03:51:44.098Z,100.00
2022-10-22T03:54:11.833Z,100.00
2022-10-22T03:56:39.601Z,100.00
2022-10-22T03:59:07.302Z,100.00
2022-10-22T04:01:36.411Z,100.00
2022-10-22T04:04:04.185Z,100.00
2022-10-22T04:06:32.103Z,100.00
2022-10-22T04:09:01.097Z,100.00
2022-10-22T04:11:28.870Z,100.00
2022-10-22T04:13:56.546Z,100.00
2022-10-22T04:16:27.372Z,100.00
2022-10-22T04:18:58.508Z,100.00
2022-10-22T04:21:26.679Z,100.00
2022-10-22T04:23:54.787Z,100.00
2022-10-22T04:26:22.819Z,100.00
2022-10-22T04:28:52.150Z,100.00
2022-10-22T04:31:21.401Z,100.00
2022-10-22T04:33:52.904Z,100.00
2022-10-22T04:36:22.344Z,100.00
2022-10-22T04:38:54.999Z,100.00
2022-10-22T04:41:25.304Z,100.00
2022-10-22T04:43:54.722Z,100.00
2022-10-22T04:46:22.894Z,100.00
2022-10-22T04:48:52.824Z,100.00
2022-10-22T04:51:24.420Z,100.00
2022-10-22T04:53:52.332Z,100.00
2022-10-22T04:56:21.960Z,100.00
2022-10-22T04:58:51.391Z,100.00
2022-10-22T05:01:20.818Z,100.00
2022-10-22T05:03:49.963Z,100.00
2022-10-22T05:06:18.235Z,100.00
2022-10-22T05:08:47.953Z,100.00
2022-10-22T05:11:17.636Z,100.00
2022-10-22T05:13:45.943Z,100.00
2022-10-22T05:16:14.359Z,100.00
2022-10-22T05:18:44.371Z,100.00
2022-10-22T05:21:17.392Z,100.00
2022-10-22T05:23:45.610Z,100.00
2022-10-22T05:26:15.999Z,100.00
2022-10-22T05:28:43.990Z,100.00
2022-10-22T05:31:13.388Z,100.00
2022-10-22T05:33:41.852Z,100.00
2022-10-22T05:36:13.183Z,100.00
2022-10-22T05:38:40.969Z,100.00
2022-10-22T05:41:11.245Z,100.00
2022-10-22T05:43:40.821Z,100.00
2022-10-22T05:46:10.695Z,100.00
2022-10-22T05:48:39.025Z,100.00
2022-10-22T05:51:09.302Z,100.00
2022-10-22T05:53:38.818Z,100.00
2022-10-22T05:56:08.909Z,100.00
2022-10-22T05:58:40.192Z,100.00
2022-10-22T06:01:12.395Z,100.00
2022-10-22T06:03:40.192Z,100.00
2022-10-22T06:06:18.434Z,100.00
2022-10-22T06:08:46.546Z,100.00
2022-10-22T06:11:14.485Z,100.00
2022-10-22T06:13:43.485Z,100.00
2022-10-22T06:16:11.593Z,100.00
2022-10-22T06:18:39.311Z,100.00
2022-10-22T06:21:08.142Z,100.00
2022-10-22T06:23:36.272Z,100.00
2022-10-22T06:26:04.527Z,100.00
2022-10-22T06:28:32.753Z,100.00
2022-10-22T06:31:02.776Z,100.00
2022-10-22T06:33:30.878Z,100.00
2022-10-22T06:36:07.663Z,100.00
2022-10-22T06:38:35.727Z,100.00
2022-10-22T06:41:04.491Z,100.00
2022-10-22T06:43:32.168Z,100.00
2022-10-22T06:46:02.278Z,100.00
2022-10-22T06:48:30.818Z,100.00
2022-10-22T06:51:02.387Z,100.00
2022-10-22T06:53:30.323Z,100.00
2022-10-22T06:55:58.267Z,100.00
2022-10-22T06:58:26.012Z,100.00
2022-10-22T07:01:03.647Z,100.00
2022-10-22T07:03:31.494Z,100.00
2022-10-22T07:06:01.327Z,100.00
2022-10-22T07:08:29.704Z,100.00
2022-10-22T07:10:59.205Z,100.00
2022-10-22T07:13:26.934Z,100.00
2022-10-22T07:15:55.504Z,100.00
2022-10-22T07:18:24.593Z,100.00
2022-10-22T07:20:52.288Z,100.00
2022-10-22T07:23:19.991Z,100.00
2022-10-22T07:25:47.781Z,100.00
2022-10-22T07:28:15.751Z,100.00
2022-10-22T07:30:43.482Z,100.00
2022-10-22T07:33:11.658Z,100.00
2022-10-22T07:35:41.369Z,100.00
2022-10-22T07:38:09.861Z,100.00
2022-10-22T07:40:37.948Z,100.00
2022-10-22T07:43:06.322Z,100.00
2022-10-22T07:45:34.378Z,100.00
2022-10-22T07:48:02.293Z,100.00
2022-10-22T07:50:30.130Z,100.00
2022-10-22T07:52:59.287Z,100.00
2022-10-22T07:55:27.156Z,100.00
2022-10-22T07:57:54.871Z,100.00
2022-10-22T08:00:25.189Z,100.00
2022-10-22T08:02:53.444Z,100.00
2022-10-22T08:05:21.224Z,100.00
2022-10-22T08:07:48.926Z,100.00
2022-10-22T08:10:18.208Z,100.00
2022-10-22T08:12:45.925Z,100.00
2022-10-22T08:15:13.823Z,100.00
2022-10-22T08:17:41.949Z,100.00
2022-10-22T08:20:10.716Z,100.00
2022-10-22T08:22:38.468Z,100.00
2022-10-22T08:25:07.133Z,100.00
2022-10-22T08:27:36.257Z,100.00
2022-10-22T08:30:04.855Z,100.00
2022-10-22T08:32:33.088Z,100.00
2022-10-22T08:35:00.813Z,100.00
2022-10-22T08:37:28.517Z,100.00
2022-10-22T08:39:56.176Z,100.00
2022-10-22T08:42:44.177Z,100.00
2022-10-22T08:45:17.084Z,100.00
2022-10-22T08:48:00.872Z,100.00
2022-10-22T08:50:34.558Z,100.00
2022-10-22T08:53:06.685Z,100.00
2022-10-22T08:55:37.562Z,100.00
2022-10-22T08:58:20.146Z,100.00
2022-10-22T09:00:53.874Z,100.00
2022-10-22T09:03:37.617Z,100.00
2022-10-22T09:06:12.148Z,100.00
2022-10-22T09:08:41.821Z,100.00
2022-10-22T09:11:20.031Z,100.00
2022-10-22T09:13:50.161Z,100.00
2022-10-22T09:16:20.495Z,100.00
2022-10-22T09:19:01.347Z,100.00
2022-10-22T09:21:39.637Z,100.00
2022-10-22T09:24:13.217Z,100.00
2022-10-22T09:26:42.608Z,100.00
2022-10-22T09:29:20.636Z,100.00
2022-10-22T09:31:48.367Z,100.00
2022-10-22T09:34:16.798Z,100.00
2022-10-22T09:36:44.592Z,100.00
2022-10-22T09:39:24.209Z,100.00
2022-10-22T09:41:51.913Z,100.00
2022-10-22T09:44:22.151Z,100.00
2022-10-22T09:46:49.876Z,100.00
2022-10-22T09:49:20.709Z,100.00
2022-10-22T09:51:52.508Z,100.00
2022-10-22T09:54:22.590Z,100.00
2022-10-22T09:56:56.599Z,100.00
2022-10-22T09:59:33.768Z,100.00
2022-10-22T10:02:19.481Z,100.00
2022-10-22T10:04:50.958Z,100.00
2022-10-22T10:07:20.714Z,100.00
2022-10-22T10:09:48.840Z,100.00
2022-10-22T10:12:38.217Z,100.00
2022-10-22T10:15:18.019Z,100.00
2022-10-22T10:17:51.996Z,100.00
2022-10-22T10:20:31.062Z,100.00
2022-10-22T10:23:08.823Z,100.00
2022-10-22T10:25:46.746Z,100.00
2022-10-22T10:28:37.983Z,100.00
2022-10-22T10:31:18.788Z,100.00
2022-10-22T10:33:57.624Z,100.00
2022-10-22T10:36:34.147Z,100.00
2022-10-22T10:39:05.965Z,100.00
2022-10-22T10:41:45.425Z,100.00
2022-10-22T10:44:32.633Z,100.00
2022-10-22T10:47:13.053Z,100.00
2022-10-22T10:49:41.057Z,100.00
2022-10-22T10:52:21.175Z,100.00
2022-10-22T10:55:00.696Z,100.00
2022-10-22T10:57:40.943Z,100.00
2022-10-22T11:00:12.825Z,100.00
2022-10-22T11:03:13.224Z,100.00
2022-10-22T11:05:45.077Z,100.00
2022-10-22T11:08:19.977Z,100.00
2022-10-22T11:10:50.719Z,100.00
2022-10-22T11:13:28.021Z,100.00
2022-10-22T11:16:02.572Z,100.00
2022-10-22T11:18:35.438Z,100.00
2022-10-22T11:21:14.267Z,100.00
2022-10-22T11:23:47.697Z,100.00
2022-10-22T11:26:28.263Z,100.00
2022-10-22T11:28:59.070Z,100.00
2022-10-22T11:31:27.918Z,100.00
2022-10-22T11:34:28.559Z,100.00
2022-10-22T11:36:55.835Z,100.00
2022-10-22T11:39:44.230Z,100.00
2022-10-22T11:42:13.958Z,100.00
2022-10-22T11:44:49.749Z,100.00
2022-10-22T11:47:20.857Z,100.00
2022-10-22T11:49:58.506Z,100.00
2022-10-22T11:52:40.061Z,100.00
2022-10-22T11:55:33.340Z,100.00
2022-10-22T11:58:03.121Z,100.00
2022-10-22T12:00:41.264Z,100.00
2022-10-22T12:03:18.923Z,100.00
2022-10-22T12:05:47.640Z,100.00
2022-10-22T12:08:26.077Z,100.00
2022-10-22T12:11:05.105Z,99.88
2022-10-22T12:13:35.544Z,100.00
2022-10-22T12:16:05.363Z,79.07
2022-10-22T12:18:40.795Z,79.87
2022-10-22T12:21:12.957Z,73.52
2022-10-22T12:23:42.663Z,77.72
2022-10-22T12:26:24.995Z,77.10
2022-10-22T12:28:57.485Z,70.57
2022-10-22T12:31:25.254Z,79.67
2022-10-22T12:33:57.828Z,83.30
2022-10-22T12:36:27.904Z,93.94
2022-10-22T12:39:01.119Z,84.75
2022-10-22T12:41:32.258Z,97.20
2022-10-22T12:44:00.663Z,100.00
2022-10-22T12:46:30.904Z,100.00
2022-10-22T12:49:01.529Z,100.00
2022-10-22T12:51:29.760Z,100.00
2022-10-22T12:54:05.978Z,100.00
2022-10-22T12:56:36.626Z,100.00
2022-10-22T12:59:08.854Z,100.00
2022-10-22T13:01:39.316Z,100.00
2022-10-22T13:04:19.793Z,100.00
2022-10-22T13:06:49.529Z,100.00
2022-10-22T13:09:23.883Z,100.00
2022-10-22T13:11:58.147Z,100.00
2022-10-22T13:14:31.569Z,100.00
2022-10-22T13:17:12.114Z,100.00
2022-10-22T13:19:48.794Z,100.00
2022-10-22T13:22:30.341Z,100.00
2022-10-22T13:25:01.025Z,100.00
2022-10-22T13:27:29.643Z,100.00
2022-10-22T13:30:02.180Z,100.00
2022-10-22T13:32:32.869Z,100.00
2022-10-22T13:35:02.358Z,100.00
2022-10-22T13:37:32.176Z,100.00
2022-10-22T13:40:01.220Z,100.00
2022-10-22T13:42:28.927Z,100.00
2022-10-22T13:44:56.644Z,100.00
2022-10-22T13:47:29.318Z,100.00
2022-10-22T13:49:59.321Z,100.00
2022-10-22T13:52:35.521Z,100.00
2022-10-22T13:55:14.549Z,100.00
2022-10-22T13:57:42.390Z,100.00
2022-10-22T14:00:13.973Z,100.00
2022-10-22T14:02:42.363Z,100.00
2022-10-22T14:05:11.268Z,100.00
2022-10-22T14:07:40.393Z,100.00
2022-10-22T14:10:18.499Z,100.00
2022-10-22T14:12:50.877Z,100.00
2022-10-22T14:15:23.770Z,100.00
2022-10-22T14:17:55.000Z,100.00
2022-10-22T14:20:25.033Z,100.00
2022-10-22T14:22:52.771Z,100.00
2022-10-22T14:25:24.173Z,100.00
2022-10-22T14:27:52.339Z,100.00
2022-10-22T14:30:21.950Z,100.00
2022-10-22T14:32:50.273Z,100.00
2022-10-22T14:35:20.587Z,100.00
2022-10-22T14:37:48.734Z,100.00
2022-10-22T14:40:19.178Z,100.00
2022-10-22T14:42:49.805Z,100.00
2022-10-22T14:45:20.935Z,100.00
2022-10-22T14:47:49.350Z,100.00
2022-10-22T14:50:17.679Z,100.00
2022-10-22T14:52:46.043Z,100.00
2022-10-22T14:55:15.553Z,100.00
2022-10-22T14:57:43.703Z,100.00
2022-10-22T15:00:15.551Z,100.00
2022-10-22T15:02:43.652Z,100.00
2022-10-22T15:05:11.962Z,100.00
2022-10-22T15:07:40.636Z,100.00
2022-10-22T15:10:09.801Z,100.00
2022-10-22T15:12:37.559Z,100.00
2022-10-22T15:15:06.216Z,100.00
2022-10-22T15:17:35.369Z,100.00
2022-10-22T15:20:04.158Z,100.00
2022-10-22T15:22:35.013Z,100.00
2022-10-22T15:25:03.506Z,100.00
2022-10-22T15:27:31.828Z,100.00
2022-10-22T15:29:59.847Z,100.00
2022-10-22T15:32:28.352Z,100.00
2022-10-22T15:34:57.482Z,100.00
2022-10-22T15:37:25.186Z,100.00
2022-10-22T15:39:52.872Z,100.00
2022-10-22T15:42:20.617Z,100.00
2022-10-22T15:44:48.351Z,100.00
2022-10-22T15:47:16.116Z,100.00
2022-10-22T15:49:43.855Z,100.00
2022-10-22T15:52:13.049Z,100.00
2022-10-22T15:54:43.768Z,100.00
2022-10-22T15:57:11.471Z,100.00
2022-10-22T15:59:39.633Z,100.00
2022-10-22T16:02:08.176Z,100.00
2022-10-22T16:04:35.834Z,100.00
2022-10-22T16:07:03.607Z,100.00
2022-10-22T16:09:32.699Z,100.00
2022-10-22T16:12:00.436Z,100.00
2022-10-22T16:14:28.876Z,100.00
2022-10-22T16:16:57.502Z,100.00
2022-10-22T16:19:26.059Z,100.00
2022-10-22T16:21:56.263Z,100.00
2022-10-22T16:24:24.456Z,100.00
2022-10-22T16:26:53.891Z,100.00
2022-10-22T16:29:21.624Z,100.00
2022-10-22T16:31:49.380Z,100.00
2022-10-22T16:34:17.149Z,100.00
2022-10-22T16:36:45.215Z,100.00
2022-10-22T16:39:12.950Z,100.00
2022-10-22T16:41:40.663Z,100.00
2022-10-22T16:44:12.291Z,100.00
2022-10-22T16:46:40.043Z,100.00
2022-10-22T16:49:08.529Z,100.00
2022-10-22T16:51:36.369Z,100.00
2022-10-22T16:54:06.781Z,100.00
2022-10-22T16:56:37.513Z,100.00
2022-10-22T16:59:05.206Z,100.00
2022-10-22T17:01:39.531Z,100.00
2022-10-22T17:04:08.256Z,100.00
2022-10-22T17:06:36.055Z,100.00
2022-10-22T17:09:04.275Z,100.00
2022-10-22T17:11:36.286Z,100.00
2022-10-22T17:14:05.944Z,100.00
2022-10-22T17:16:35.028Z,100.00
2022-10-22T17:19:04.550Z,100.00
2022-10-22T17:21:32.368Z,100.00
2022-10-22T17:24:00.101Z,100.00
2022-10-22T17:26:27.926Z,100.00
2022-10-22T17:28:55.752Z,100.00
2022-10-22T17:31:27.787Z,100.00
2022-10-22T17:33:59.783Z,100.00
2022-10-22T17:36:31.807Z,100.00
2022-10-22T17:39:05.545Z,100.00
2022-10-22T17:41:35.345Z,100.00
2022-10-22T17:44:04.664Z,100.00
2022-10-22T17:46:33.628Z,100.00
2022-10-22T17:49:05.317Z,100.00
2022-10-22T17:51:33.630Z,100.00
2022-10-22T17:54:03.419Z,100.00
2022-10-22T17:56:33.701Z,100.00
2022-10-22T17:59:02.682Z,100.00
2022-10-22T18:01:32.368Z,100.00
2022-10-22T18:04:04.381Z,100.00
2022-10-22T18:06:32.998Z,100.00
2022-10-22T18:09:00.871Z,100.00
2022-10-22T18:11:31.459Z,100.00
2022-10-22T18:13:59.740Z,100.00
2022-10-22T18:16:27.548Z,100.00
2022-10-22T18:18:56.739Z,100.00
2022-10-22T18:21:28.296Z,100.00
2022-10-22T18:23:56.950Z,100.00
2022-10-22T18:26:26.872Z,100.00
2022-10-22T18:28:55.075Z,100.00
2022-10-22T18:31:24.767Z,100.00
2022-10-22T18:36:24.057Z,100.00
2022-10-22T18:38:54.738Z,100.00
2022-10-22T18:41:22.830Z,100.00
2022-10-22T18:43:54.650Z,100.00
2022-10-22T18:46:23.923Z,100.00
2022-10-22T18:48:53.473Z,100.00
2022-10-22T18:51:21.213Z,100.00
2022-10-22T18:54:04.516Z,100.00
2022-10-22T18:56:41.519Z,100.00
2022-10-22T18:59:16.398Z,100.00
2022-10-22T19:01:44.144Z,100.00
2022-10-22T19:04:13.408Z,100.00
2022-10-22T19:06:44.521Z,100.00
2022-10-22T19:09:13.624Z,100.00
2022-10-22T19:11:43.852Z,100.00
2022-10-22T19:14:11.651Z,100.00
2022-10-22T19:16:39.341Z,100.00
2022-10-22T19:19:08.698Z,100.00
2022-10-22T19:21:37.799Z,100.00
2022-10-22T19:24:05.898Z,100.00
2022-10-22T19:26:33.818Z,100.00
2022-10-22T19:29:03.311Z,100.00
2022-10-22T19:31:31.620Z,100.00
2022-10-22T19:34:00.551Z,100.00
2022-10-22T19:36:30.039Z,100.00
2022-10-22T19:38:58.622Z,100.00
2022-10-22T19:41:28.140Z,100.00
2022-10-22T19:43:57.159Z,100.00
2022-10-22T19:46:27.991Z,100.00
2022-10-22T19:48:57.287Z,100.00
2022-10-22T19:51:27.760Z,100.00
2022-10-22T19:53:59.445Z,100.00
2022-10-22T19:56:27.950Z,100.00
2022-10-22T19:58:55.731Z,100.00
2022-10-22T20:01:23.773Z,100.00
2022-10-22T20:03:53.164Z,100.00
2022-10-22T20:06:21.796Z,100.00
2022-10-22T20:08:52.348Z,100.00
2022-10-22T20:11:25.333Z,100.00
2022-10-22T20:13:53.100Z,100.00
2022-10-22T20:16:23.834Z,100.00
2022-10-22T20:18:53.360Z,100.00
2022-10-22T20:21:22.043Z,100.00
2022-10-22T20:23:53.454Z,100.00
2022-10-22T20:26:21.319Z,100.00
2022-10-22T20:28:49.016Z,100.00
2022-10-22T20:31:20.607Z,100.00
2022-10-22T20:33:49.246Z,100.00
2022-10-22T20:36:20.464Z,100.00
2022-10-22T20:38:48.939Z,100.00
2022-10-22T20:41:18.867Z,100.00
2022-10-22T20:43:47.614Z,100.00
2022-10-22T20:46:18.932Z,100.00
2022-10-22T20:48:46.854Z,100.00
2022-10-22T20:51:15.028Z,100.00
2022-10-22T20:53:44.228Z,100.00
2022-10-22T20:56:12.488Z,100.00
2022-10-22T20:58:40.370Z,100.00
2022-10-22T21:01:12.071Z,100.00
2022-10-22T21:03:39.969Z,100.00
2022-10-22T21:06:08.123Z,100.00
2022-10-22T21:08:35.850Z,100.00
2022-10-22T21:11:05.057Z,100.00
2022-10-22T21:13:33.451Z,100.00
2022-10-22T21:16:07.441Z,100.00
2022-10-22T21:18:35.743Z,100.00
2022-10-22T21:21:05.167Z,100.00
2022-10-22T21:23:33.155Z,100.00
2022-10-22T21:26:01.025Z,100.00
2022-10-22T21:31:03.215Z,100.00
2022-10-22T21:33:31.078Z,100.00
2022-10-22T21:35:59.153Z,100.00
2022-10-22T21:38:27.007Z,100.00
2022-10-22T21:40:54.778Z,100.00
2022-10-22T21:43:22.505Z,100.00
2022-10-22T21:45:51.673Z,100.00
2022-10-22T21:48:19.410Z,100.00
2022-10-22T21:50:47.204Z,100.00
2022-10-22T21:53:15.344Z,100.00
2022-10-22T21:55:43.046Z,100.00
2022-10-22T21:58:10.770Z,100.00
2022-10-22T22:00:38.489Z,100.00
2022-10-22T22:03:09.128Z,100.00
2022-10-22T22:05:37.046Z,100.00
2022-10-22T22:08:04.797Z,100.00
2022-10-22T22:10:32.636Z,100.00
2022-10-22T22:13:00.338Z,100.00
2022-10-22T22:15:28.742Z,100.00
2022-10-22T22:17:56.451Z,100.00
2022-10-22T22:20:25.705Z,100.00
2022-10-22T22:22:53.478Z,100.00
2022-10-22T22:25:21.243Z,100.00
2022-10-22T22:27:49.011Z,100.00
2022-10-22T22:30:17.860Z,100.00
2022-10-22T22:32:45.580Z,100.00
2022-10-22T22:35:13.270Z,100.00
2022-10-22T22:37:42.524Z,100.00
2022-10-22T22:40:11.630Z,100.00
2022-10-22T22:42:39.292Z,100.00
2022-10-22T22:45:07.795Z,100.00
2022-10-22T22:47:35.445Z,100.00
2022-10-22T22:50:03.153Z,100.00
2022-10-22T22:52:30.854Z,100.00
2022-10-22T22:54:59.963Z,100.00
2022-10-22T22:57:27.647Z,100.00
2022-10-22T22:59:55.373Z,100.00
2022-10-22T23:02:23.167Z,100.00
2022-10-22T23:04:50.826Z,100.00
2022-10-22T23:07:18.506Z,100.00
2022-10-22T23:09:46.265Z,100.00
2022-10-22T23:12:15.472Z,100.00
2022-10-22T23:14:43.144Z,100.00
2022-10-22T23:17:10.866Z,100.00
2022-10-22T23:19:38.601Z,100.00
2022-10-22T23:22:06.278Z,100.00
2022-10-22T23:24:34.075Z,100.00
2022-10-22T23:27:03.844Z,100.00
2022-10-22T23:29:35.988Z,100.00
2022-10-22T23:32:04.766Z,100.00
2022-10-22T23:34:33.273Z,100.00
2022-10-22T23:37:01.043Z,100.00
2022-10-22T23:39:29.831Z,100.00
2022-10-22T23:41:57.989Z,100.00
2022-10-22T23:44:26.121Z,100.00
2022-10-22T23:46:55.320Z,100.00
2022-10-22T23:49:23.013Z,100.00
2022-10-22T23:51:50.687Z,100.00
2022-10-22T23:54:19.204Z,100.00
2022-10-22T23:56:47.492Z,100.00
2022-10-22T23:59:15.531Z,100.00
